Time;durP1;ratioP1;P1;durP2;ratioP2;P2;SDS_P1;SDS_P2;PMS_P1;PMS_P2;Temp;Humidity;BMP_temperature;BMP_pressure;BME280_temperature;BME280_humidity;BME280_pressure;Samples;Min_cycle;Max_cycle;Signal;HPM_P1;HPM_P2
2021/03/25 05:17:52;;;;;;;9.25;6.47;;;4.20;48.00;;;;;;6311809;22;20283;-94
2021/03/25 05:20:22;;;;;;;6.18;5.43;;;4.00;47.80;;;;;;6286279;22;20154;-90
2021/03/25 05:23:00;;;;;;;8.65;5.80;;;4.20;47.80;;;;;;6285735;22;20148;-92
2021/03/25 05:26:01;;;;;;;6.50;5.90;;;4.20;47.80;;;;;;6287971;22;20235;-92
2021/03/25 05:28:45;;;;;;;8.65;6.53;;;4.30;47.80;;;;;;6286617;22;20570;-92
2021/03/25 05:31:13;;;;;;;9.18;6.65;;;4.10;47.50;;;;;;6285831;22;20162;-91
2021/03/25 05:33:39;;;;;;;7.78;6.97;;;3.60;47.10;;;;;;6285497;22;20160;-92
2021/03/25 05:36:11;;;;;;;7.68;6.88;;;4.30;47.80;;;;;;6285641;22;20148;-92
2021/03/25 05:38:38;;;;;;;10.68;9.27;;;4.40;47.90;;;;;;6284729;22;20178;-91
2021/03/25 05:44:56;;;;;;;8.80;7.90;;;4.00;47.80;;;;;;6319013;22;20669;-91
2021/03/25 05:47:56;;;;;;;10.68;8.77;;;4.40;48.20;;;;;;6282057;22;20610;-95
2021/03/25 05:50:37;;;;;;;9.00;7.25;;;4.70;48.60;;;;;;6286548;22;20583;-94
2021/03/25 05:53:34;;;;;;;8.20;7.38;;;4.40;48.30;;;;;;6287853;22;20148;-93
2021/03/25 05:56:42;;;;;;;8.73;7.82;;;4.80;48.50;;;;;;6287756;22;20223;-93
2021/03/25 05:59:21;;;;;;;8.98;6.72;;;4.40;48.10;;;;;;6285677;22;20228;-92
2021/03/25 06:02:00;;;;;;;7.13;6.43;;;4.60;48.10;;;;;;6284880;22;20416;-92
2021/03/25 06:04:34;;;;;;;6.95;5.97;;;4.50;47.90;;;;;;6284089;22;20148;-90
2021/03/25 06:07:17;;;;;;;8.75;6.93;;;5.20;48.40;;;;;;6285244;22;20564;-90
2021/03/25 06:10:25;;;;;;;9.70;8.45;;;4.70;47.50;;;;;;6284130;22;20166;-91
2021/03/25 06:13:11;;;;;;;8.80;7.40;;;4.90;47.70;;;;;;6215130;22;20156;-89
2021/03/25 06:15:50;;;;;;;23.77;17.60;;;4.40;47.00;;;;;;6284110;22;20166;-92
2021/03/25 06:18:47;;;;;;;13.30;11.15;;;5.10;47.10;;;;;;6285251;22;20634;-92
2021/03/25 06:21:43;;;;;;;13.43;8.13;;;5.40;47.20;;;;;;6285651;22;20140;-91
2021/03/25 06:24:52;;;;;;;11.13;7.90;;;5.30;47.00;;;;;;6283726;22;20231;-92
2021/03/25 06:28:01;;;;;;;6.80;5.68;;;5.60;47.20;;;;;;6283955;22;20156;-91
2021/03/25 06:30:32;;;;;;;9.10;6.15;;;5.90;46.70;;;;;;6284438;22;20235;-92
2021/03/25 06:33:22;;;;;;;8.13;6.38;;;6.80;46.00;;;;;;6283270;22;20221;-92
2021/03/25 06:36:09;;;;;;;6.70;6.00;;;6.90;44.90;;;;;;6282725;22;20425;-92
2021/03/25 06:38:43;;;;;;;7.25;6.55;;;7.40;43.80;;;;;;6289086;22;20839;-91
2021/03/25 06:41:17;;;;;;;8.15;6.95;;;7.80;42.00;;;;;;6287313;22;20128;-91
2021/03/25 06:43:55;;;;;;;8.15;6.70;;;8.20;39.30;;;;;;6288405;22;20140;-92
2021/03/25 06:46:52;;;;;;;8.25;7.10;;;9.20;39.60;;;;;;6293600;22;20136;-92
2021/03/25 06:49:44;;;;;;;8.40;7.60;;;8.80;38.30;;;;;;6289269;22;20149;-93
2021/03/25 06:52:41;;;;;;;10.60;7.72;;;9.00;38.00;;;;;;6289651;22;20155;-94
2021/03/25 06:55:13;;;;;;;9.10;6.88;;;9.40;37.80;;;;;;6282397;22;20164;-93
2021/03/25 06:58:13;;;;;;;7.70;7.00;;;9.50;37.10;;;;;;6288309;22;20176;-93
2021/03/25 07:00:46;;;;;;;7.85;6.82;;;9.80;37.00;;;;;;6288244;22;20152;-94
2021/03/25 07:03:16;;;;;;;8.27;6.38;;;10.00;35.50;;;;;;6293750;22;20141;-92
2021/03/25 07:05:45;;;;;;;7.65;6.93;;;10.00;35.00;;;;;;6296407;22;20140;-93
2021/03/25 07:08:15;;;;;;;8.80;6.97;;;10.00;34.60;;;;;;6296766;22;20188;-92
2021/03/25 07:14:08;;;;;;;7.85;6.85;;;10.50;34.20;;;;;;6314847;22;20159;-92
2021/03/25 07:17:01;;;;;;;9.23;7.75;;;10.20;34.60;;;;;;6283798;22;20700;-93
2021/03/25 07:19:28;;;;;;;8.85;7.70;;;10.10;33.90;;;;;;6261878;22;20177;-92
2021/03/25 07:22:26;;;;;;;10.02;8.27;;;10.40;35.10;;;;;;6266799;22;20167;-92
2021/03/25 07:25:15;;;;;;;11.60;8.10;;;10.00;34.70;;;;;;6258211;22;20141;-94
2021/03/25 07:27:43;;;;;;;9.57;7.50;;;9.80;36.60;;;;;;6256451;22;20148;-93
2021/03/25 07:30:26;;;;;;;6.78;6.18;;;9.60;37.90;;;;;;6255808;22;20150;-94
2021/03/25 07:40:20;;;;;;;7.70;6.88;;;9.70;37.50;;;;;;6282742;22;20147;-93
2021/03/25 07:42:46;;;;;;;7.75;6.95;;;10.00;37.00;;;;;;6254416;22;20180;-92
2021/03/25 07:45:30;;;;;;;9.55;7.53;;;9.90;37.60;;;;;;6254264;22;20394;-92
2021/03/25 07:48:17;;;;;;;9.77;7.25;;;10.00;36.50;;;;;;6255927;22;20141;-92
2021/03/25 07:50:44;;;;;;;8.38;7.03;;;10.20;36.00;;;;;;6253147;22;20145;-91
2021/03/25 07:56:21;;;;;;;11.23;7.47;;;10.30;36.10;;;;;;6282511;22;20164;-93
2021/03/25 07:59:24;;;;;;;7.07;6.37;;;10.60;35.50;;;;;;6255611;22;20169;-92
2021/03/25 08:01:50;;;;;;;8.52;7.18;;;10.80;35.00;;;;;;6258187;22;20137;-93
2021/03/25 08:08:15;;;;;;;8.38;7.65;;;11.20;34.40;;;;;;6289451;22;20252;-93
2021/03/25 08:10:44;;;;;;;8.05;6.70;;;11.70;33.70;;;;;;6255014;22;20474;-92
2021/03/25 08:21:03;;;;;;;9.65;7.20;;;12.20;33.90;;;;;;6238923;23;20189;-95
2021/03/25 08:30:54;;;;;;;8.52;7.20;;;12.10;32.10;;;;;;6219008;23;20424;-93
2021/03/25 08:34:05;;;;;;;8.30;7.50;;;13.10;32.20;;;;;;6211561;23;20389;-92
2021/03/25 09:00:35;;;;;;;8.70;6.67;;;14.30;29.70;;;;;;6322131;22;20417;-94
2021/03/25 09:06:20;;;;;;;9.57;7.90;;;13.90;31.30;;;;;;6318357;22;20140;-93
2021/03/25 09:08:49;;;;;;;8.97;7.90;;;13.60;31.60;;;;;;6286077;22;20363;-94
2021/03/25 09:11:17;;;;;;;9.40;8.30;;;13.90;31.70;;;;;;6286706;22;20367;-93
2021/03/25 09:13:47;;;;;;;8.27;7.43;;;13.80;31.30;;;;;;6292571;22;20485;-93
2021/03/25 09:19:44;;;;;;;9.40;7.50;;;14.30;30.80;;;;;;6310909;22;20420;-93
2021/03/25 09:29:26;;;;;;;8.77;7.87;;;14.60;29.70;;;;;;6324196;22;20930;-94
2021/03/25 09:35:38;;;;;;;10.17;7.87;;;15.30;29.20;;;;;;6327419;22;20347;-95
2021/03/25 09:41:26;;;;;;;9.02;7.22;;;15.70;28.30;;;;;;6319682;22;20357;-95
2021/03/25 09:53:53;;;;;;;6.67;5.70;;;16.60;27.40;;;;;;6320659;22;20341;-93
2021/03/25 09:59:52;;;;;;;7.63;6.90;;;17.50;26.90;;;;;;6325886;22;20464;-93
2021/03/25 10:02:58;;;;;;;7.17;6.50;;;17.80;25.90;;;;;;6292614;22;20679;-93
2021/03/25 10:05:24;;;;;;;7.33;5.77;;;17.20;25.50;;;;;;6292628;22;20414;-92
2021/03/25 10:11:43;;;;;;;6.93;6.23;;;17.30;25.70;;;;;;6319918;22;20132;-92
2021/03/25 10:21:14;;;;;;;8.00;6.97;;;17.60;24.80;;;;;;6331578;22;20365;-92
2021/03/25 10:24:00;;;;;;;7.23;6.43;;;18.10;25.50;;;;;;6297029;22;20375;-92
2021/03/25 10:26:32;;;;;;;8.93;6.20;;;18.40;24.30;;;;;;6295900;22;20431;-92
2021/03/25 10:29:45;;;;;;;7.30;6.03;;;18.20;24.80;;;;;;6292917;22;20473;-91
2021/03/25 10:32:25;;;;;;;6.97;6.27;;;18.30;24.30;;;;;;6286979;22;20443;-91
2021/03/25 10:34:57;;;;;;;9.30;6.90;;;18.50;24.30;;;;;;6287934;22;20385;-92
2021/03/25 10:38:01;;;;;;;9.63;6.30;;;18.50;23.50;;;;;;6287845;22;20509;-92
2021/03/25 10:43:49;;;;;;;8.07;6.37;;;18.50;23.60;;;;;;6171633;23;20386;-95
2021/03/25 10:49:49;;;;;;;7.30;5.20;;;18.80;23.30;;;;;;6329315;22;20368;-95
2021/03/25 10:55:42;;;;;;;6.63;5.90;;;20.00;23.40;;;;;;6324620;22;20666;-95
2021/03/25 11:01:35;;;;;;;7.40;6.00;;;19.90;22.10;;;;;;6332343;22;20329;-95
2021/03/25 11:07:24;;;;;;;8.17;6.37;;;20.60;22.70;;;;;;6326535;22;20369;-94
2021/03/25 11:13:12;;;;;;;6.60;5.87;;;20.70;22.00;;;;;;6323461;22;20343;-94
2021/03/25 14:58:56;;;;;;;3.80;1.90;;;19.90;17.90;;;;;;6314175;22;20417;-90
2021/03/25 15:01:22;;;;;;;2.40;1.87;;;20.10;18.60;;;;;;6287203;22;20845;-90
2021/03/25 15:03:49;;;;;;;2.33;2.10;;;20.10;18.00;;;;;;6284934;22;20409;-89
2021/03/25 15:06:16;;;;;;;2.07;1.90;;;20.40;17.70;;;;;;6283951;22;20386;-89
2021/03/25 15:08:41;;;;;;;1.73;1.53;;;20.40;16.50;;;;;;6283800;22;20383;-88
2021/03/25 15:11:07;;;;;;;2.13;1.90;;;20.40;16.50;;;;;;6285836;22;20382;-89
2021/03/25 15:13:33;;;;;;;2.40;1.80;;;20.40;16.30;;;;;;6286912;22;20191;-90
2021/03/25 15:16:00;;;;;;;4.40;2.23;;;20.10;16.30;;;;;;6287958;22;20176;-90
2021/03/25 15:18:26;;;;;;;1.50;1.40;;;19.90;16.60;;;;;;6287606;22;20491;-90
2021/03/25 15:20:53;;;;;;;3.70;1.83;;;20.40;17.00;;;;;;6287326;22;20374;-89
2021/03/25 15:23:33;;;;;;;2.13;2.03;;;20.00;16.70;;;;;;6288152;22;20708;-90
2021/03/25 15:26:01;;;;;;;2.43;1.77;;;20.10;17.20;;;;;;6288238;22;20381;-90
2021/03/25 15:28:29;;;;;;;4.63;2.23;;;20.50;16.90;;;;;;6289465;22;20383;-90
2021/03/25 15:30:56;;;;;;;2.00;1.70;;;20.70;16.60;;;;;;6287613;22;20364;-91
2021/03/25 15:36:44;;;;;;;2.20;2.00;;;20.80;15.90;;;;;;6324080;22;20362;-91
2021/03/25 15:42:32;;;;;;;2.92;2.03;;;21.20;16.70;;;;;;6326378;22;20443;-91
2021/03/25 15:51:49;;;;;;;3.10;2.80;;;20.60;17.30;;;;;;6314088;22;20182;-90
2021/03/25 15:54:17;;;;;;;3.20;2.40;;;20.60;17.30;;;;;;6285220;22;20430;-91
2021/03/25 15:56:43;;;;;;;3.70;2.10;;;20.80;17.40;;;;;;6286915;22;20152;-91
2021/03/25 16:02:31;;;;;;;4.33;2.70;;;20.90;17.20;;;;;;6314054;22;20135;-89
2021/03/25 16:04:58;;;;;;;3.00;2.70;;;20.80;18.10;;;;;;6288838;22;20447;-91
2021/03/25 16:10:46;;;;;;;3.80;2.73;;;21.10;18.50;;;;;;6313842;22;20346;-88
2021/03/25 16:13:12;;;;;;;4.57;3.10;;;20.60;18.50;;;;;;6284782;22;20773;-89
2021/03/25 16:15:47;;;;;;;3.27;2.67;;;20.20;19.00;;;;;;6284938;22;20183;-89
2021/03/25 16:18:15;;;;;;;4.30;3.27;;;20.40;19.50;;;;;;6290774;22;20421;-92
2021/03/25 16:21:00;;;;;;;4.80;3.57;;;20.00;19.90;;;;;;6296261;22;20844;-92
2021/03/25 16:26:48;;;;;;;2.87;2.57;;;19.60;20.50;;;;;;6318061;22;20359;-88
2021/03/25 16:29:13;;;;;;;4.10;3.27;;;19.50;20.70;;;;;;6284735;22;20383;-88
2021/03/25 16:31:53;;;;;;;3.67;3.30;;;19.70;21.30;;;;;;6284658;22;20191;-89
2021/03/25 16:34:19;;;;;;;4.07;3.50;;;19.40;20.60;;;;;;6286200;22;20148;-88
2021/03/25 16:36:52;;;;;;;3.17;2.87;;;19.20;20.90;;;;;;6285743;22;20379;-89
2021/03/25 16:39:18;;;;;;;5.13;4.63;;;19.60;20.70;;;;;;6286192;22;20180;-89
2021/03/25 16:42:17;;;;;;;3.27;2.97;;;19.20;20.80;;;;;;6286364;22;20382;-89
2021/03/25 16:44:42;;;;;;;3.50;3.20;;;19.10;20.90;;;;;;6289370;22;20227;-91
2021/03/25 16:47:13;;;;;;;3.47;3.13;;;19.30;20.90;;;;;;6291725;22;20401;-91
2021/03/25 16:50:04;;;;;;;3.50;3.20;;;19.20;20.80;;;;;;6286835;22;20160;-88
2021/03/25 16:52:30;;;;;;;4.57;3.27;;;19.30;20.60;;;;;;6285815;22;20469;-88
2021/03/25 16:54:56;;;;;;;3.70;3.20;;;19.60;20.60;;;;;;6273292;22;20458;-88
2021/03/25 16:57:27;;;;;;;4.50;3.70;;;19.80;20.30;;;;;;6255499;22;20407;-89
2021/03/25 16:59:54;;;;;;;4.15;2.92;;;19.90;20.20;;;;;;6255063;22;20382;-90
2021/03/25 17:02:22;;;;;;;3.80;3.20;;;20.00;20.20;;;;;;6253509;22;20152;-90
2021/03/25 17:04:48;;;;;;;5.30;3.67;;;20.40;20.20;;;;;;6252607;22;20454;-91
2021/03/25 17:07:27;;;;;;;4.60;3.33;;;20.20;19.80;;;;;;6252957;22;20410;-91
2021/03/25 17:09:53;;;;;;;4.10;3.60;;;20.00;19.80;;;;;;6254664;22;20155;-90
2021/03/25 17:12:42;;;;;;;6.77;4.80;;;19.80;20.20;;;;;;6254842;22;20467;-91
2021/03/25 17:15:10;;;;;;;6.03;4.50;;;19.30;20.40;;;;;;6254037;22;20537;-92
2021/03/25 17:20:59;;;;;;;5.63;5.07;;;18.90;21.70;;;;;;6281200;22;20374;-91
2021/03/25 17:23:28;;;;;;;5.97;4.30;;;18.80;22.20;;;;;;6253896;22;20378;-91
2021/03/25 17:25:55;;;;;;;6.40;4.73;;;18.60;22.00;;;;;;6254456;22;20408;-91
2021/03/25 17:28:24;;;;;;;4.70;4.10;;;18.80;22.30;;;;;;6253774;22;20388;-91
2021/03/25 17:30:52;;;;;;;4.40;4.00;;;18.70;22.20;;;;;;6253372;22;20518;-91
2021/03/25 17:33:21;;;;;;;5.80;3.97;;;18.80;22.50;;;;;;6254459;22;20380;-91
2021/03/25 17:35:47;;;;;;;8.00;4.07;;;18.90;22.30;;;;;;6256563;22;20410;-93
2021/03/25 17:39:05;;;;;;;4.70;4.00;;;19.00;22.30;;;;;;6255365;22;20885;-93
2021/03/25 17:41:30;;;;;;;5.47;4.37;;;18.90;22.00;;;;;;6255934;22;20142;-92
2021/03/25 17:43:57;;;;;;;4.73;4.33;;;19.00;22.10;;;;;;6262019;22;20425;-92
2021/03/25 17:46:23;;;;;;;4.20;3.60;;;19.00;21.90;;;;;;6253353;22;20179;-92
2021/03/25 17:49:17;;;;;;;8.30;7.47;;;19.60;22.50;;;;;;6265446;22;20367;-92
2021/03/25 17:51:44;;;;;;;6.50;4.67;;;19.50;22.00;;;;;;6267993;22;20387;-93
2021/03/25 18:18:23;;;;;;;6.60;5.37;;;18.40;23.50;;;;;;6315517;22;20440;-92
2021/03/25 18:20:49;;;;;;;6.43;5.90;;;18.40;23.70;;;;;;6289281;22;20818;-94
2021/03/25 18:23:23;;;;;;;6.27;4.40;;;18.30;24.50;;;;;;6285521;22;20153;-91
2021/03/25 18:25:49;;;;;;;4.90;4.50;;;18.20;24.40;;;;;;6286183;22;20386;-89
2021/03/25 18:28:40;;;;;;;6.97;4.23;;;17.90;24.50;;;;;;6288241;22;20402;-92
2021/03/25 18:31:07;;;;;;;4.80;4.30;;;17.90;24.50;;;;;;6287938;22;20393;-91
2021/03/25 18:33:42;;;;;;;7.57;6.03;;;17.80;24.60;;;;;;6285684;22;20378;-91
2021/03/25 18:36:31;;;;;;;8.55;6.70;;;17.80;25.30;;;;;;6287435;22;20395;-91
2021/03/25 18:38:57;;;;;;;7.73;7.03;;;17.80;25.30;;;;;;6287291;22;20168;-91
2021/03/25 18:44:44;;;;;;;9.50;8.10;;;17.50;25.70;;;;;;6316748;22;20401;-92
2021/03/25 18:47:13;;;;;;;7.50;6.80;;;17.10;26.00;;;;;;6288638;22;20379;-90
2021/03/25 18:49:38;;;;;;;8.80;8.10;;;17.30;27.20;;;;;;6290089;22;20190;-93
2021/03/25 18:52:07;;;;;;;7.03;5.90;;;16.90;27.60;;;;;;6287875;22;20386;-92
2021/03/25 18:54:33;;;;;;;7.07;6.23;;;16.40;27.90;;;;;;6290028;22;20216;-93
2021/03/25 18:57:00;;;;;;;7.37;6.77;;;16.30;28.00;;;;;;6292215;22;20393;-92
2021/03/25 18:59:26;;;;;;;9.73;8.75;;;16.40;28.00;;;;;;6291345;22;20389;-93
2021/03/25 19:02:00;;;;;;;25.58;18.80;;;16.70;28.60;;;;;;6287888;22;20704;-91
2021/03/25 19:04:26;;;;;;;16.10;12.60;;;16.30;28.70;;;;;;6285877;22;20587;-91
2021/03/25 19:06:54;;;;;;;13.10;10.53;;;16.20;28.50;;;;;;6285062;22;20466;-93
2021/03/25 19:09:21;;;;;;;11.47;10.23;;;16.00;28.00;;;;;;6284281;22;20552;-92
2021/03/25 19:12:08;;;;;;;14.20;10.80;;;16.20;28.60;;;;;;6286029;22;20842;-93
2021/03/25 19:14:34;;;;;;;7.13;6.40;;;16.20;28.60;;;;;;6289285;22;20488;-92
2021/03/25 19:17:02;;;;;;;8.83;7.43;;;15.90;29.00;;;;;;6289362;22;20379;-91
2021/03/25 19:19:28;;;;;;;7.10;6.40;;;16.10;28.60;;;;;;6287110;22;20599;-91
2021/03/25 19:22:08;;;;;;;8.93;6.20;;;15.80;29.40;;;;;;6286374;22;20450;-91
2021/03/25 19:24:34;;;;;;;6.73;6.13;;;16.30;29.60;;;;;;6286418;22;20143;-92
2021/03/25 19:27:31;;;;;;;7.60;6.80;;;15.80;30.00;;;;;;6292557;22;20363;-94
2021/03/25 19:30:20;;;;;;;10.10;6.83;;;15.70;29.40;;;;;;6289456;22;20149;-91
2021/03/25 19:32:45;;;;;;;7.38;6.68;;;15.60;29.60;;;;;;6286306;22;20427;-92
2021/03/25 19:35:13;;;;;;;9.23;6.87;;;15.40;29.80;;;;;;6289587;22;20145;-92
2021/03/25 19:37:39;;;;;;;8.37;7.57;;;15.40;29.70;;;;;;6287019;22;20241;-91
2021/03/25 19:40:06;;;;;;;8.53;6.60;;;15.40;29.90;;;;;;6287666;22;20375;-90
2021/03/25 19:42:32;;;;;;;9.50;7.30;;;15.60;30.00;;;;;;6292787;22;20390;-93
2021/03/25 19:45:19;;;;;;;10.30;7.20;;;15.40;30.20;;;;;;6295686;22;20367;-94
2021/03/25 19:47:45;;;;;;;9.07;8.17;;;15.20;30.80;;;;;;6294885;22;20375;-93
2021/03/25 19:50:20;;;;;;;7.60;6.87;;;15.20;32.20;;;;;;6290530;22;20370;-91
2021/03/25 19:52:46;;;;;;;9.70;7.80;;;15.40;32.00;;;;;;6290326;22;20449;-91
2021/03/25 19:55:29;;;;;;;8.43;7.63;;;15.10;32.10;;;;;;6289087;22;20475;-91
2021/03/25 19:57:55;;;;;;;9.67;8.70;;;15.00;32.00;;;;;;6290977;22;20757;-91
2021/03/25 20:00:46;;;;;;;10.37;8.30;;;15.20;32.20;;;;;;6291600;22;20397;-91
2021/03/25 20:03:13;;;;;;;10.37;9.37;;;15.10;31.30;;;;;;6294353;22;20390;-90
2021/03/25 20:06:06;;;;;;;10.93;7.53;;;14.80;31.80;;;;;;6294354;22;20377;-91
2021/03/25 20:08:33;;;;;;;10.03;8.33;;;15.20;33.00;;;;;;6292602;22;20701;-90
2021/03/25 20:11:05;;;;;;;8.55;7.75;;;15.30;33.10;;;;;;6289302;22;20424;-91
2021/03/25 20:13:36;;;;;;;8.03;7.23;;;15.30;32.60;;;;;;6287729;22;20188;-92
2021/03/25 20:16:02;;;;;;;7.97;6.70;;;15.60;33.10;;;;;;6290307;22;20406;-92
2021/03/25 20:21:50;;;;;;;31.37;20.87;;;15.10;32.50;;;;;;6320632;22;20331;-93
2021/03/25 20:27:40;;;;;;;13.67;12.37;;;14.80;33.00;;;;;;6315773;22;20905;-92
2021/03/25 20:33:30;;;;;;;9.07;8.13;;;14.90;32.80;;;;;;6310469;22;20338;-92
2021/03/25 20:35:59;;;;;;;9.87;8.87;;;15.20;34.50;;;;;;6283695;22;20380;-92
2021/03/25 20:38:25;;;;;;;9.80;8.00;;;14.80;33.50;;;;;;6282431;22;20427;-93
2021/03/25 20:40:53;;;;;;;10.73;8.93;;;15.00;32.70;;;;;;6286826;22;20711;-93
2021/03/25 20:43:26;;;;;;;18.90;11.87;;;14.70;32.70;;;;;;6283861;22;20379;-92
2021/03/25 20:45:55;;;;;;;25.67;14.50;;;14.90;32.90;;;;;;6287753;22;20368;-93
2021/03/25 20:49:05;;;;;;;29.87;15.47;;;14.80;33.30;;;;;;6282150;22;20448;-93
2021/03/25 20:51:36;;;;;;;23.13;15.03;;;14.60;33.20;;;;;;6285820;22;20386;-94
2021/03/25 20:54:20;;;;;;;25.30;14.10;;;14.70;33.80;;;;;;6280785;22;20737;-93
2021/03/25 21:00:10;;;;;;;12.00;9.27;;;14.20;33.30;;;;;;6317614;22;20350;-94
2021/03/25 21:05:59;;;;;;;10.50;9.10;;;14.30;33.90;;;;;;6321297;22;20361;-95
2021/03/25 21:11:48;;;;;;;8.07;6.20;;;14.00;34.40;;;;;;6323750;22;20358;-93
2021/03/25 21:14:14;;;;;;;6.90;5.37;;;14.00;35.00;;;;;;6297420;22;20441;-91
2021/03/25 21:20:03;;;;;;;9.45;7.95;;;13.60;34.60;;;;;;6311561;22;20610;-91
2021/03/25 21:22:49;;;;;;;9.60;7.50;;;13.80;35.30;;;;;;6284688;22;20149;-93
2021/03/25 21:25:16;;;;;;;7.63;6.50;;;13.40;35.50;;;;;;6284260;22;20420;-92
2021/03/25 21:41:01;;;;;;;8.90;6.90;;;12.40;37.30;;;;;;6313356;22;20132;-91
2021/03/25 21:43:49;;;;;;;8.85;7.00;;;12.20;38.80;;;;;;6284357;22;20854;-91
2021/03/25 21:46:17;;;;;;;12.48;9.77;;;12.50;39.30;;;;;;6284064;22;20739;-91
2021/03/25 21:48:45;;;;;;;10.45;8.90;;;12.30;38.70;;;;;;6288553;22;20178;-93
2021/03/25 21:51:44;;;;;;;10.23;8.02;;;12.70;38.40;;;;;;6285949;22;20551;-91
2021/03/25 21:54:10;;;;;;;10.45;8.75;;;12.40;38.20;;;;;;6287539;22;20542;-94
2021/03/25 21:56:36;;;;;;;10.43;8.60;;;12.40;38.30;;;;;;6285393;22;20140;-91
